Northeast Gulf: Past 24 Hour Conditions

 

La Scie

11:30 AM NDT 02 September 2014
This table is a summary of hourly weather conditions for the past 24 hours.
Date / Time
(NDT)
Wind(knots) Conditions Visibility(km) Pressure(kPa) Air tempC) Relative humidity(%) Dew pointC)
02 September 2014
11:30 9 N/A N/A 101.8 17 60 10
10:30 7 N/A N/A 101.8 16 65 10
9:30 7 N/A N/A 101.9 15 73 10
8:30 8 N/A N/A 101.9 13 86 11
7:30 5 N/A N/A 101.9 11 94 10
6:30 5 N/A N/A 101.9 10 94 9
5:30 5 N/A N/A 101.9 10 95 9
4:30 5 N/A N/A 101.8 9 94 8
3:30 5 N/A N/A 101.8 10 93 8
2:30 5 N/A N/A 101.8 10 93 8
1:30 5 N/A N/A 101.8 10 94 9
0:30 4 N/A N/A 101.8 10 95 9
01 September 2014
23:30 5 N/A N/A 101.8 10 94 9
22:30 3 N/A N/A 101.8 10 94 9
21:30 4 N/A N/A 101.8 10 93 9
20:30 3 N/A N/A 101.7 11 90 9
19:30 4 N/A N/A 101.6 12 88 10
18:30 4 N/A N/A 101.6 13 79 10
17:30 4 N/A N/A 101.6 16 66 9
16:30 5 N/A N/A 101.6 18 62 10
15:30 5 N/A N/A 101.5 18 51 8
14:30 7 N/A N/A 101.5 18 57 10
13:30 5 N/A N/A 101.4 19 56 10
12:30 5 N/A N/A 101.4 19 58 11
11:30 3 N/A N/A 101.4 18 70 12
 
Map of Atlantic - Newfoundland marine weather areas Southwestern Grand Banks - 44138 Banquereau - 44139 Tail of the Bank - 44140 Nickerson Bank - 44251 Northeast Burgeo Bank - 44255 Blanc-Sablon Airport Cap Whittle Chevery Natashquan Airport Heath Point Miscou Island Grand Étang Ingonish Beach North Mountain St.Paul Island J.A. Douglas McCurdy Sydney Airport Charlottetown Airport East Point North Cape Argentia Bonavista Burgeo Cape Race Corner Brook Daniel's Harbour Englee Ferolle Point La Scie Port aux Basques Rocky Harbour Sagona Island St. Anthony Airport St. John's Int'l Airport St. Lawrence Stephenville Airport Twillingate Winterland Wreckhouse Cartwright Airport Mary's Harbour Grates Cove Pool's Island Marticot Island Long Pond Îles de la Madeleine Airport
Legend: buoyBuoy land stationLand Station